• Join FlightAware (Why Join?)
  • Login
  • US Flag 
10:08AM EDT


 

Airport Tracker/Info


-or-


 

Live Flight TrackerFlight Track Log ✈ UPS1308 ✈ 16-Jul-2013 ✈ KPHL - KATL

Flight Track Log - Related Links

Times and Time Zones

All times are in EDT time to prevent confusion due to time zone crossing. See the UPS1308 flight status page for this flight to view local times or setup timezone preferences in your user account.

Time Position Orientation Groundspeed Altitude Reporting Facility
EDT Latitude Longitude Course Direction KTS MPH feet Rate Location/Type
03:14AM 39.8667 -75.2667 243° Southwest 168 193 600  Level Philadelphia TRACON
03:15AM 39.8333 -75.3500 243° Southwest 231 266 2,300 1,800 Climbing Philadelphia TRACON
03:16AM 39.8167 -75.4333 255° West 250 288 4,600 2,520 Climbing Philadelphia TRACON
03:19AM 39.8306 -75.6692 274° West 283 326 10,900 2,100 Climbing New York Center
03:20AM 39.8336 -75.7883 272° West 312 359 11,800 1,500 Climbing New York Center
03:21AM 39.7872 -75.9011 242° Southwest 333 383 14,000 1,980 Climbing New York Center
03:22AM 39.7267 -75.9967 231° Southwest 366 421 15,800 1,740 Climbing New York Center
03:23AM 39.6081 -76.1867 231° Southwest 417 480 18,500 1,680 Climbing Washington Center
03:24AM 39.5364 -76.3044 232° Southwest 422 486 20,100 1,620 Climbing Washington Center
03:25AM 39.4628 -76.4247 232° Southwest 422 486 21,800 1,560 Climbing Washington Center
03:26AM 39.3889 -76.5394 230° Southwest 427 491 23,300 1,560 Climbing Washington Center
03:27AM 39.3089 -76.6672 231° Southwest 452 520 24,900 1,500 Climbing Washington Center
03:28AM 39.2283 -76.7947 231° Southwest 460 529 26,300 1,500 Climbing Washington Center
03:29AM 39.1456 -76.9269 231° Southwest 472 543 27,900 1,500 Climbing Washington Center
03:30AM 39.0628 -77.0619 232° Southwest 477 549 29,300 1,500 Climbing Washington Center
03:31AM 38.9756 -77.1964 230° Southwest 483 556 31,000 1,680 Climbing Washington Center
03:32AM 38.8906 -77.3278 230° Southwest 488 562 32,800 1,620 Climbing Washington Center
03:33AM 38.7967 -77.4694 230° Southwest 488 562 34,300 1,380 Climbing Washington Center
03:34AM 38.7089 -77.6031 230° Southwest 488 562 35,700 840 Climbing Washington Center
03:35AM 38.6275 -77.7336 231° Southwest 493 567 36,000 120 Climbing Washington Center
03:36AM 38.5436 -77.8667 231° Southwest 487 560 36,000  Level Washington Center
03:37AM 38.4578 -77.9964 230° Southwest 487 560 36,000  Level Washington Center
03:38AM 38.3739 -78.1261 231° Southwest 487 560 36,000  Level Washington Center
03:39AM 38.2897 -78.2531 230° Southwest 487 560 36,000  Level Washington Center
03:40AM 38.2033 -78.3847 230° Southwest 487 560 36,000  Level Washington Center
03:41AM 38.1189 -78.5136 230° Southwest 487 560 36,000  Level Washington Center
03:42AM 38.0364 -78.6422 231° Southwest 481 554 36,000  Level Washington Center
03:43AM 37.9583 -78.7575 229° Southwest 481 554 36,000  Level Washington Center
03:44AM 37.8736 -78.8828 229° Southwest 481 554 36,000  Level Washington Center
03:45AM 37.7867 -79.0106 229° Southwest 481 554 36,000  Level Washington Center
03:46AM 37.7039 -79.1353 230° Southwest 481 554 36,000  Level Washington Center
03:47AM 37.6097 -79.2778 230° Southwest 481 554 36,000  Level Washington Center
03:48AM 37.5225 -79.4044 229° Southwest 486 559 36,000  Level Washington Center
03:49AM 37.4350 -79.5308 229° Southwest 486 559 36,000  Level Washington Center
03:50AM 37.3431 -79.6567 227° Southwest 486 559 36,000  Level Washington Center
03:51AM 37.2617 -79.7778 230° Southwest 486 559 36,000  Level Washington Center
03:54AM 37.0575 -80.0672 229° Southwest 480 552 36,000  Level Atlanta Center
03:55AM 36.9719 -80.1911 229° Southwest 480 552 36,000  Level Atlanta Center
03:56AM 36.8758 -80.3256 228° Southwest 475 547 36,000  Level Atlanta Center
03:57AM 36.7900 -80.4489 229° Southwest 475 547 36,000  Level Atlanta Center
03:58AM 36.7100 -80.5664 230° Southwest 475 547 36,000  Level Atlanta Center
03:59AM 36.6217 -80.6917 229° Southwest 475 547 36,000  Level Atlanta Center
04:00AM 36.5353 -80.8117 228° Southwest 475 547 36,000  Level Atlanta Center
04:01AM 36.4467 -80.9339 228° Southwest 475 547 36,000  Level Atlanta Center
04:02AM 36.3619 -81.0558 229° Southwest 475 547 36,000  Level Atlanta Center
04:03AM 36.2731 -81.1775 228° Southwest 475 547 36,000  Level Atlanta Center
04:04AM 36.1861 -81.2989 228° Southwest 475 547 36,000  Level Atlanta Center
04:05AM 36.0992 -81.4228 229° Southwest 475 547 36,000  Level Atlanta Center
04:06AM 36.0081 -81.5464 228° Southwest 480 552 36,000  Level Atlanta Center
04:07AM 35.9244 -81.6514 225° Southwest 475 547 36,000  Level Atlanta Center
04:08AM 35.8308 -81.7694 226° Southwest 475 547 36,000  Level Atlanta Center
04:09AM 35.7369 -81.8872 226° Southwest 480 552 36,000  Level Atlanta Center
04:10AM 35.6431 -82.0072 226° Southwest 491 565 36,000  Level Atlanta Center
04:11AM 35.5511 -82.1244 226° Southwest 485 558 36,000  Level Atlanta Center
04:12AM 35.4567 -82.2386 225° Southwest 485 558 36,000 -120 Level Atlanta Center
04:13AM 35.3644 -82.3528 225° Southwest 480 552 35,800 -660 Descending Atlanta Center
04:14AM 35.2722 -82.4692 226° Southwest 480 552 34,700 -900 Descending Atlanta Center
04:15AM 35.1775 -82.5778 223° Southwest 480 552 34,000 -360 Descending Atlanta Center
04:16AM 35.0869 -82.6961 227° Southwest 474 545 34,000  Level Atlanta Center
04:17AM 34.9944 -82.8039 224° Southwest 479 551 34,000 -300 Level Atlanta Center
04:18AM 34.8911 -82.9322 226° Southwest 474 545 33,400 -1,380 Descending Atlanta Center
04:19AM 34.7983 -83.0447 225° Southwest 474 545 31,300 -2,040 Descending Atlanta Center
04:20AM 34.7053 -83.1544 224° Southwest 474 545 29,400 -1,980 Descending Atlanta Center
04:21AM 34.6203 -83.2664 227° Southwest 458 527 27,400 -2,040 Descending Atlanta Center
04:22AM 34.5333 -83.3681 224° Southwest 452 520 25,400 -1,980 Descending Atlanta Center
04:23AM 34.4503 -83.4694 225° Southwest 437 503 23,500 -1,980 Descending Atlanta Center
04:24AM 34.3672 -83.5681 224° Southwest 424 488 21,500 -2,040 Descending Atlanta Center
04:25AM 34.2861 -83.6642 224° Southwest 412 474 19,500 -1,800 Descending Atlanta Center
04:26AM 34.2156 -83.7500 225° Southwest 406 467 17,900 -1,920 Descending Atlanta Center
04:27AM 34.1383 -83.8406 224° Southwest 396 456 15,700 -1,800 Descending Atlanta Center
04:27AM 34.0833 -83.9000 222° Southwest 366 421 15,000 -600 Descending Atlanta TRACON
04:28AM 34.0000 -83.9833 220° Southwest 370 426 14,800 -1,140 Descending Atlanta TRACON
04:29AM 33.9333 -84.0667 226° Southwest 363 418 12,900 -1,980 Descending Atlanta TRACON
04:30AM 33.8667 -84.1500 226° Southwest 352 405 11,100 -1,080 Descending Atlanta TRACON
04:31AM 33.8167 -84.2333 234° Southwest 337 388 10,800 -1,020 Descending Atlanta TRACON
04:32AM 33.8000 -84.3333 259° West 310 357 9,100 -1,920 Descending Atlanta TRACON
04:33AM 33.7667 -84.4167 244° Southwest 299 344 7,200 -2,220 Descending Atlanta TRACON
04:34AM 33.7500 -84.5167 259° West 282 325 4,900 -2,160 Descending Atlanta TRACON
04:35AM 33.7333 -84.6000 256° West 269 310 2,900 -960 Descending Atlanta TRACON
04:36AM 33.6833 -84.6333 209° Southwest 181 208 3,000  Climbing Atlanta TRACON
04:37AM 33.6667 -84.6000 121° Southeast 155 178 2,900 -60 Descending Atlanta TRACON
04:38AM 33.6500 -84.5667 121° Southeast 138 159 2,900 -360 Level Atlanta TRACON
04:39AM 33.6500 -84.5167 90° East 137 158 2,200 -660 Descending Atlanta TRACON
04:40AM 33.6500 -84.4667 90° East 119 137 1,600 -600 Descending Atlanta TRACON
04:42AM 33.6367 -84.4279 123° Southeast  Level Estimated
04:49AM 33.6367 -84.4279 123° Southeast  Level Estimated